Time;durP1;ratioP1;P1;durP2;ratioP2;P2;SDS_P1;SDS_P2;PMS_P1;PMS_P2;Temp;Humidity;BMP_temperature;BMP_pressure;BME280_temperature;BME280_humidity;BME280_pressure;Samples;Min_cycle;Max_cycle;Signal;HPM_P1;HPM_P2
2022/11/04 00:01:46;;;;;;;;;0.00;0.00;;;;;24.09;44.57;99977.22;5036991;28;45425;-72
2022/11/04 00:04:12;;;;;;;;;0.33;0.33;;;;;24.07;44.29;99964.94;5032567;28;45302;-72
2022/11/04 00:06:38;;;;;;;;;0.00;0.00;;;;;24.07;43.93;99969.47;5051559;28;46217;-72
2022/11/04 00:09:06;;;;;;;;;1.00;1.00;;;;;24.06;44.13;99971.31;5037876;28;45380;-72
2022/11/04 00:14:16;;;;;;;;;0.67;0.33;;;;;24.02;43.99;99956.03;5037982;28;45363;-72
2022/11/04 00:19:26;;;;;;;;;0.00;0.00;;;;;24.01;44.34;99960.50;5032104;28;45465;-72
2022/11/04 00:30:07;;;;;;;;;1.00;0.00;;;;;24.01;44.63;99965.00;5034434;28;45360;-73
2022/11/04 00:35:16;;;;;;;;;1.00;1.00;;;;;24.00;44.30;99952.75;5030195;28;45446;-72
2022/11/04 00:37:43;;;;;;;;;1.33;0.67;;;;;23.99;44.40;99946.63;5036957;28;47370;-73
2022/11/04 00:40:11;;;;;;;;;1.00;1.00;;;;;24.00;44.50;99953.56;5037375;28;45489;-73
2022/11/04 00:42:37;;;;;;;;;0.00;0.00;;;;;23.99;44.28;99956.44;5024069;28;45445;-72
2022/11/04 00:45:03;;;;;;;;;1.00;1.00;;;;;23.99;44.15;99956.44;5017121;28;45331;-73
2022/11/04 00:47:28;;;;;;;;;2.00;0.33;;;;;23.90;44.10;99943.41;5017032;28;46109;-72
2022/11/04 00:49:53;;;;;;;;;0.00;0.00;;;;;23.78;43.98;99924.72;5017529;28;45715;-72
2022/11/04 00:52:19;;;;;;;;;0.00;0.00;;;;;23.99;43.83;99953.78;5017336;28;45900;-72
2022/11/04 00:54:44;;;;;;;;;0.00;0.00;;;;;23.98;44.18;99960.13;5035207;28;45389;-72
2022/11/04 00:57:13;;;;;;;;;0.00;0.00;;;;;23.96;44.03;99963.81;5027641;28;45911;-73
2022/11/04 00:59:39;;;;;;;;;0.00;0.00;;;;;23.96;44.42;99971.78;5029716;28;45392;-73
2022/11/04 01:02:06;;;;;;;;;0.00;0.00;;;;;23.95;44.13;99971.97;5036631;28;45344;-72
2022/11/04 01:04:31;;;;;;;;;0.00;0.00;;;;;23.85;44.12;99961.84;5037274;28;45457;-72
2022/11/04 01:06:57;;;;;;;;;0.00;0.00;;;;;23.95;44.34;99982.63;5032849;28;46104;-73
2022/11/04 01:09:22;;;;;;;;;0.00;0.00;;;;;23.88;44.05;99972.03;5017303;28;45411;-72
2022/11/04 01:11:48;;;;;;;;;1.67;1.00;;;;;23.72;44.33;99938.81;5018525;28;45395;-72
2022/11/04 01:14:14;;;;;;;;;0.33;0.33;;;;;23.95;43.85;99970.16;5017235;28;45357;-72
2022/11/04 01:16:39;;;;;;;;;0.67;0.00;;;;;23.90;44.15;99951.38;5017028;28;45898;-72
2022/11/04 01:19:05;;;;;;;;;0.00;0.00;;;;;23.95;44.02;99967.50;5030197;28;45408;-72
2022/11/04 01:21:31;;;;;;;;;2.33;1.00;;;;;23.84;43.96;99941.59;5026559;28;45414;-73
2022/11/04 01:23:56;;;;;;;;;1.00;1.00;;;;;23.94;44.37;99957.88;5019035;28;45343;-72
2022/11/04 01:26:24;;;;;;;;;2.00;0.00;;;;;23.85;44.34;99943.25;5016707;28;47191;-72
2022/11/04 01:28:51;;;;;;;;;0.00;0.00;;;;;23.94;44.37;99949.13;5024243;28;45382;-73
2022/11/04 01:31:21;;;;;;;;;0.00;0.00;;;;;23.93;44.17;99944.81;5016916;28;45361;-72
2022/11/04 01:33:47;;;;;;;;;0.00;0.00;;;;;23.93;44.20;99942.16;5036257;28;45355;-72
2022/11/04 01:36:13;;;;;;;;;1.00;1.00;;;;;23.93;44.26;99937.69;5036383;28;45500;-72
2022/11/04 01:38:39;;;;;;;;;0.67;0.33;;;;;23.85;44.21;99922.81;5036424;28;45472;-72
2022/11/04 01:41:05;;;;;;;;;0.67;0.67;;;;;23.91;44.04;99938.91;5032442;28;45443;-72
2022/11/04 01:43:48;;;;;;;;;1.00;0.00;;;;;23.90;44.18;99940.75;5029589;28;45514;-72
2022/11/04 01:46:31;;;;;;;;;1.00;0.00;;;;;23.89;44.04;99952.41;5015834;28;47334;-72
2022/11/04 01:49:03;;;;;;;;;0.00;0.00;;;;;23.88;44.54;99953.44;5015720;28;45466;-72
2022/11/04 01:51:33;;;;;;;;;1.33;0.00;;;;;23.79;44.09;99921.00;5022957;28;45424;-72
2022/11/04 01:54:01;;;;;;;;;0.33;0.00;;;;;23.87;44.46;99937.69;5027590;28;45463;-72
2022/11/04 01:56:27;;;;;;;;;0.00;0.00;;;;;23.84;44.18;99928.31;5021002;28;45979;-72
2022/11/04 01:58:56;;;;;;;;;0.67;0.67;;;;;23.87;44.01;99927.06;5015994;28;45282;-72
2022/11/04 02:01:21;;;;;;;;;0.00;0.00;;;;;23.74;44.18;99918.19;5028682;28;45399;-72
2022/11/04 02:03:51;;;;;;;;;1.00;1.00;;;;;23.72;43.92;99899.81;5035977;28;45460;-72
2022/11/04 02:06:19;;;;;;;;;1.00;1.00;;;;;23.89;44.16;99917.88;5036078;28;46517;-72
2022/11/04 02:08:46;;;;;;;;;2.00;0.00;;;;;23.89;44.09;99928.50;5035925;28;45392;-72
2022/11/04 02:12:48;;;;;;;;;1.00;1.00;;;;;23.89;44.11;99925.84;5036220;28;45355;-72
2022/11/04 02:13:57;;;;;;;;;0.00;0.00;;;;;23.89;44.16;99925.03;5035420;28;45429;-72
2022/11/04 02:16:31;;;;;;;;;0.00;0.00;;;;;23.79;44.24;99922.84;5035757;28;45381;-73
2022/11/04 02:19:10;;;;;;;;;1.00;1.00;;;;;23.89;44.25;99943.63;5035642;28;45458;-72
2022/11/04 02:21:47;;;;;;;;;1.00;1.00;;;;;23.88;43.88;99942.81;5035937;28;45442;-72
2022/11/04 02:24:24;;;;;;;;;0.00;0.00;;;;;23.88;44.27;99936.69;5035818;28;45496;-72
2022/11/04 02:27:14;;;;;;;;;0.00;0.00;;;;;23.86;44.01;99931.59;5035492;28;46358;-72
2022/11/04 02:30:03;;;;;;;;;0.00;0.00;;;;;23.85;44.07;99932.63;5023925;28;45423;-72
2022/11/04 02:32:47;;;;;;;;;0.33;0.33;;;;;23.86;44.21;99926.28;5035842;28;45278;-72
2022/11/04 02:35:18;;;;;;;;;2.00;1.00;;;;;23.86;44.02;99928.94;5035865;28;45301;-72
2022/11/04 02:37:53;;;;;;;;;0.00;0.00;;;;;23.85;44.18;99917.50;5035387;28;45440;-72
2022/11/04 02:40:29;;;;;;;;;2.00;1.00;;;;;23.86;44.17;99910.34;5035352;28;45492;-72
2022/11/04 02:42:54;;;;;;;;;0.00;0.00;;;;;23.84;44.05;99905.22;5020639;28;45408;-72
2022/11/04 02:45:35;;;;;;;;;0.00;0.00;;;;;23.84;43.84;99909.72;5039272;28;45583;-72
2022/11/04 02:48:04;;;;;;;;;0.00;0.00;;;;;23.85;44.43;99898.91;5031078;28;47178;-72
2022/11/04 02:50:38;;;;;;;;;0.00;0.00;;;;;23.84;44.06;99894.59;5035685;28;45428;-72
2022/11/04 02:53:11;;;;;;;;;0.33;0.33;;;;;23.80;43.96;99882.81;5025058;28;45442;-72
2022/11/04 02:55:42;;;;;;;;;1.00;1.00;;;;;23.85;43.81;99887.47;5034194;28;45489;-72
2022/11/04 02:58:20;;;;;;;;;0.33;0.00;;;;;23.85;44.09;99887.47;5033389;28;45391;-72
2022/11/04 03:00:49;;;;;;;;;0.00;0.00;;;;;23.85;44.28;99890.13;5027609;28;45440;-72
2022/11/04 03:03:21;;;;;;;;;1.33;0.00;;;;;23.84;44.07;99881.34;5024160;28;45379;-72
2022/11/04 03:05:51;;;;;;;;;0.00;0.00;;;;;23.83;44.03;99884.22;5030857;28;45483;-72
2022/11/04 03:08:42;;;;;;;;;0.00;0.00;;;;;23.78;43.87;99876.91;5025041;28;47459;-72
2022/11/04 03:11:14;;;;;;;;;1.00;0.00;;;;;23.84;43.79;99886.63;5028568;28;45365;-72
2022/11/04 03:13:52;;;;;;;;;1.00;0.00;;;;;23.85;44.06;99890.13;5038799;28;45427;-72
2022/11/04 03:16:23;;;;;;;;;0.00;0.00;;;;;23.83;43.99;99886.88;5038947;28;45340;-72
2022/11/04 03:19:06;;;;;;;;;1.67;0.00;;;;;23.84;43.93;99880.50;5038344;28;45586;-72
2022/11/04 03:21:35;;;;;;;;;0.00;0.00;;;;;23.79;43.80;99872.38;5038820;28;45226;-72
2022/11/04 03:24:02;;;;;;;;;0.67;0.67;;;;;23.85;44.13;99882.16;5038779;28;45410;-72
2022/11/04 03:26:50;;;;;;;;;0.00;0.00;;;;;23.83;43.84;99885.03;5038125;28;45408;-72
2022/11/04 03:29:19;;;;;;;;;0.00;0.00;;;;;23.84;44.07;99880.50;5038255;28;46267;-72
2022/11/04 03:31:57;;;;;;;;;0.00;0.00;;;;;23.83;43.83;99885.03;5038538;28;45391;-72
2022/11/04 03:34:23;;;;;;;;;0.00;0.00;;;;;23.79;43.92;99885.66;5038631;28;45455;-72
2022/11/04 03:36:48;;;;;;;;;1.00;1.00;;;;;23.83;43.83;99894.84;5038397;28;45431;-72
2022/11/04 03:39:13;;;;;;;;;0.00;0.00;;;;;23.79;43.94;99891.78;5038347;28;47098;-72
2022/11/04 03:41:59;;;;;;;;;0.00;0.00;;;;;23.83;43.95;99890.34;5032508;28;45285;-72
2022/11/04 03:44:25;;;;;;;;;1.00;0.00;;;;;23.82;43.99;99893.19;5027270;28;45301;-72
2022/11/04 03:46:52;;;;;;;;;0.00;0.00;;;;;23.81;43.52;99891.59;5018191;28;45416;-72
2022/11/04 03:49:19;;;;;;;;;1.00;1.00;;;;;23.74;43.76;99881.81;5030644;28;46085;-72
2022/11/04 03:51:45;;;;;;;;;0.00;0.00;;;;;23.73;43.68;99890.81;5018025;28;45273;-72
2022/11/04 03:54:10;;;;;;;;;1.33;0.00;;;;;23.73;43.73;99890.81;5021963;28;45312;-72
2022/11/04 03:56:47;;;;;;;;;2.00;0.00;;;;;23.78;43.76;99905.28;5019528;28;45465;-72
2022/11/04 03:59:19;;;;;;;;;1.33;0.00;;;;;23.78;44.04;99906.13;5018229;28;45469;-72
2022/11/04 04:01:51;;;;;;;;;0.00;0.00;;;;;23.78;43.70;99911.44;5020713;28;45383;-72
2022/11/04 04:04:33;;;;;;;;;0.33;0.33;;;;;23.78;43.99;99903.47;5038087;28;45350;-72
2022/11/04 04:07:18;;;;;;;;;0.00;0.00;;;;;23.74;43.73;99905.72;5037505;28;45299;-72
2022/11/04 04:09:53;;;;;;;;;1.00;1.00;;;;;23.69;44.04;99894.94;5037311;28;45569;-72
2022/11/04 04:12:19;;;;;;;;;1.00;0.00;;;;;23.79;44.03;99909.56;5037021;28;45320;-72
2022/11/04 04:14:50;;;;;;;;;1.00;1.00;;;;;23.79;44.31;99906.91;5038271;28;45368;-72
2022/11/04 04:17:49;;;;;;;;;0.00;0.00;;;;;23.80;44.12;99916.50;5037818;28;45474;-72
2022/11/04 04:20:19;;;;;;;;;0.67;0.67;;;;;23.79;44.01;99912.22;5032945;28;47277;-73
2022/11/04 04:22:50;;;;;;;;;0.00;0.00;;;;;23.78;43.72;99916.75;5037807;28;45331;-73
2022/11/04 04:28:03;;;;;;;;;0.00;0.00;;;;;23.79;43.73;99922.84;5037879;28;45286;-72
2022/11/04 04:30:29;;;;;;;;;0.00;0.00;;;;;23.79;44.29;99922.84;5037504;28;45406;-73
2022/11/04 04:32:54;;;;;;;;;0.00;0.00;;;;;23.77;44.29;99923.06;5037410;28;45491;-72
2022/11/04 04:35:43;;;;;;;;;1.00;0.00;;;;;23.76;43.95;99926.75;5037844;28;45454;-72
2022/11/04 04:47:08;;;;;;;;;0.00;0.00;;;;;23.65;43.72;99911.50;5017494;28;45371;-73
2022/11/04 04:49:33;;;;;;;;;0.00;0.00;;;;;23.76;43.67;99933.91;5017320;28;45403;-72
2022/11/04 04:52:00;;;;;;;;;1.00;1.00;;;;;23.70;43.48;99938.22;5017297;28;46159;-72
2022/11/04 04:54:26;;;;;;;;;0.00;0.00;;;;;23.70;43.48;99939.06;5017133;28;45284;-72
2022/11/04 04:56:51;;;;;;;;;0.33;0.00;;;;;23.77;44.08;99954.94;5034356;28;45514;-72
2022/11/04 04:59:16;;;;;;;;;0.00;0.00;;;;;23.76;43.81;99958.59;5034256;28;45381;-72
2022/11/04 05:01:42;;;;;;;;;0.00;0.00;;;;;23.74;43.67;99950.88;5020673;28;45352;-72
2022/11/04 05:04:07;;;;;;;;;0.00;0.00;;;;;23.75;44.02;99957.00;5028947;28;45353;-72
2022/11/04 05:06:32;;;;;;;;;1.00;0.00;;;;;23.74;43.94;99961.50;5022800;28;45409;-73
2022/11/04 05:08:57;;;;;;;;;0.00;0.00;;;;;23.77;43.84;99968.22;5021083;28;45350;-72
2022/11/04 05:11:23;;;;;;;;;1.33;0.33;;;;;23.77;43.88;99973.53;5017191;28;45460;-72
2022/11/04 05:13:48;;;;;;;;;1.33;0.00;;;;;23.76;44.22;99974.53;5021008;28;45369;-72
2022/11/04 05:16:13;;;;;;;;;1.00;0.00;;;;;23.75;44.09;99978.25;5027358;28;45356;-73
2022/11/04 05:18:39;;;;;;;;;0.00;0.00;;;;;23.70;44.05;99978.06;5030450;28;45590;-72
2022/11/04 05:21:09;;;;;;;;;2.00;0.00;;;;;23.74;43.66;99980.06;5016731;28;46401;-72
2022/11/04 05:23:35;;;;;;;;;0.00;0.00;;;;;23.68;44.06;99969.50;5031031;28;45441;-72
2022/11/04 05:26:00;;;;;;;;;0.00;0.00;;;;;23.72;43.68;99983.97;5029995;28;45342;-72
2022/11/04 05:28:26;;;;;;;;;0.00;0.00;;;;;23.68;44.21;99982.78;5027348;28;45539;-72
2022/11/04 05:30:51;;;;;;;;;0.00;0.00;;;;;23.68;43.68;99974.81;5022471;28;46010;-72
2022/11/04 05:33:17;;;;;;;;;0.00;0.00;;;;;23.65;43.94;99978.72;5036739;28;45376;-73
2022/11/04 05:35:42;;;;;;;;;1.00;0.00;;;;;23.66;44.02;99985.63;5036353;28;45469;-72
2022/11/04 05:38:07;;;;;;;;;0.00;0.00;;;;;23.69;43.77;99987.88;5027748;28;45445;-72
2022/11/04 05:40:33;;;;;;;;;0.00;0.00;;;;;23.74;44.27;99992.53;5027636;28;46118;-72
2022/11/04 05:42:59;;;;;;;;;1.00;0.00;;;;;23.42;44.26;99955.31;5019984;28;45372;-72
2022/11/04 05:45:25;;;;;;;;;2.00;1.00;;;;;23.74;43.94;100003.97;5016684;28;45311;-72
2022/11/04 05:48:02;;;;;;;;;1.33;0.00;;;;;23.75;43.98;100004.81;5016513;28;45542;-73
2022/11/04 05:50:29;;;;;;;;;1.00;0.00;;;;;23.74;43.66;100011.13;5024235;28;46115;-72
2022/11/04 05:52:58;;;;;;;;;0.00;0.00;;;;;23.63;44.35;99996.66;5035640;28;45530;-73
2022/11/04 05:55:24;;;;;;;;;1.67;0.67;;;;;23.74;44.12;100013.78;5036542;28;45371;-73
2022/11/04 05:57:49;;;;;;;;;1.00;0.00;;;;;23.72;44.13;100016.66;5036442;28;45420;-72
2022/11/04 06:00:15;;;;;;;;;0.00;0.00;;;;;23.74;44.07;100024.41;5036268;28;46046;-73
2022/11/04 06:02:40;;;;;;;;;0.00;0.00;;;;;23.73;43.80;100026.25;5036315;28;45400;-73
2022/11/04 06:05:06;;;;;;;;;0.00;0.00;;;;;23.71;44.07;100020.34;5035829;28;45383;-72
2022/11/04 06:07:31;;;;;;;;;0.00;0.00;;;;;23.71;44.35;100033.63;5036504;28;45369;-72
2022/11/04 06:09:57;;;;;;;;;0.00;0.00;;;;;23.74;43.94;100037.69;5035782;28;47108;-72
2022/11/04 06:12:22;;;;;;;;;1.00;1.00;;;;;23.52;43.94;100008.78;5034247;28;46148;-72
2022/11/04 06:14:47;;;;;;;;;1.00;0.00;;;;;23.63;44.06;100026.69;5036072;28;45440;-73
2022/11/04 06:17:15;;;;;;;;;0.33;0.00;;;;;23.67;44.06;100039.56;5035888;28;45391;-72
2022/11/04 06:19:40;;;;;;;;;1.00;0.00;;;;;23.71;44.29;100048.72;5047716;28;46982;-73
2022/11/04 06:22:05;;;;;;;;;0.00;0.00;;;;;23.64;44.12;100051.44;5032226;28;45332;-73
2022/11/04 06:24:31;;;;;;;;;0.00;0.00;;;;;23.72;43.82;100058.34;5035976;28;45364;-72
2022/11/04 06:26:56;;;;;;;;;0.33;0.00;;;;;23.72;43.78;100063.66;5035574;28;45408;-73
2022/11/04 06:29:21;;;;;;;;;0.00;0.00;;;;;23.73;43.44;100068.75;5038441;28;46080;-72
2022/11/04 06:31:47;;;;;;;;;0.00;0.00;;;;;23.62;43.82;100064.09;5035777;28;45307;-73
2022/11/04 06:34:12;;;;;;;;;0.00;0.00;;;;;23.74;43.56;100072.22;5034961;28;45292;-71
2022/11/04 06:36:37;;;;;;;;;0.67;0.00;;;;;23.65;43.92;100062.88;5035795;28;45412;-72
2022/11/04 06:39:04;;;;;;;;;0.00;0.00;;;;;23.73;44.18;100081.22;5035560;28;46078;-73
2022/11/04 06:41:29;;;;;;;;;0.00;0.00;;;;;23.70;43.59;100079.81;5033628;28;45507;-72
2022/11/04 06:43:55;;;;;;;;;0.00;0.00;;;;;23.71;43.60;100094.69;5025826;28;45384;-72
2022/11/04 06:46:33;;;;;;;;;0.00;0.00;;;;;23.72;43.67;100103.50;5029225;28;45364;-72
2022/11/04 06:48:58;;;;;;;;;0.00;0.00;;;;;23.70;43.58;100119.66;5015278;28;46019;-72
2022/11/04 06:51:24;;;;;;;;;0.00;0.00;;;;;23.71;43.72;100117.78;5015233;28;45451;-72
2022/11/04 06:53:50;;;;;;;;;0.00;0.00;;;;;23.63;43.75;100117.00;5023916;28;45411;-72
2022/11/04 06:56:16;;;;;;;;;1.00;1.00;;;;;23.70;44.08;100132.09;5021919;28;45836;-72
2022/11/04 06:58:41;;;;;;;;;0.00;0.00;;;;;23.71;44.13;100136.38;5015178;28;45476;-72
2022/11/04 07:01:07;;;;;;;;;0.00;0.00;;;;;23.56;44.23;100124.16;5015568;28;45329;-72
2022/11/04 07:03:32;;;;;;;;;0.00;0.00;;;;;23.72;44.11;100151.28;5029148;28;45349;-72
2022/11/04 07:05:57;;;;;;;;;0.00;0.00;;;;;23.71;43.62;100155.78;5015790;28;45322;-72
2022/11/04 07:08:23;;;;;;;;;0.67;0.00;;;;;23.68;44.04;100153.53;5015045;28;46027;-72
2022/11/04 07:10:48;;;;;;;;;0.00;0.00;;;;;23.66;44.17;100152.13;5015399;28;45459;-73
2022/11/04 07:13:15;;;;;;;;;0.33;0.00;;;;;23.59;44.24;100155.63;5015674;28;45407;-70
2022/11/04 07:15:41;;;;;;;;;0.00;0.00;;;;;23.63;44.05;100166.63;5029213;28;45293;-74
2022/11/04 07:18:06;;;;;;;;;0.00;0.00;;;;;23.66;43.68;100173.34;5022052;28;46987;-73
2022/11/04 07:20:35;;;;;;;;;0.00;0.00;;;;;23.73;43.86;100190.13;5017842;28;45272;-73
2022/11/04 07:23:01;;;;;;;;;0.00;0.00;;;;;23.66;43.76;100194.59;5025233;28;45400;-74
2022/11/04 07:25:26;;;;;;;;;0.00;0.00;;;;;23.66;44.15;100203.38;5033789;28;45421;-74
2022/11/04 07:27:52;;;;;;;;;1.00;0.00;;;;;23.75;43.81;100222.59;5034529;28;46862;-74
2022/11/04 07:30:19;;;;;;;;;1.67;0.00;;;;;23.73;43.92;100230.75;5034650;28;45723;-75
2022/11/04 07:32:45;;;;;;;;;0.00;0.00;;;;;23.75;43.95;100241.19;5020836;28;45348;-74
2022/11/04 07:35:11;;;;;;;;;1.00;0.00;;;;;23.77;43.65;100243.63;5032411;28;45376;-74
2022/11/04 07:37:36;;;;;;;;;2.00;0.00;;;;;23.77;43.94;100244.44;5031892;28;45484;-74
2022/11/04 07:40:03;;;;;;;;;0.67;0.00;;;;;23.44;44.37;100200.97;5034254;28;45424;-74
2022/11/04 07:42:29;;;;;;;;;0.00;0.00;;;;;23.78;44.36;100262.03;5022553;28;45419;-74
2022/11/04 07:44:54;;;;;;;;;0.00;0.00;;;;;23.79;44.54;100268.13;5022282;28;45465;-72
2022/11/04 07:47:20;;;;;;;;;2.00;1.00;;;;;23.78;44.48;100279.81;5027470;28;47040;-75
2022/11/04 07:49:45;;;;;;;;;0.00;0.00;;;;;23.73;44.41;100281.22;5034035;28;45624;-74
2022/11/04 07:52:10;;;;;;;;;0.00;0.00;;;;;23.76;44.34;100298.56;5025429;28;45376;-75
2022/11/04 07:54:36;;;;;;;;;0.00;0.00;;;;;23.79;44.09;100316.78;5033107;28;45541;-74
2022/11/04 07:57:01;;;;;;;;;0.33;0.00;;;;;23.73;44.40;100313.09;5023388;28;45619;-73
2022/11/04 07:59:27;;;;;;;;;27.25;19.25;;;;;23.74;44.00;100328.00;5037364;28;45402;-74
2022/11/04 08:01:52;;;;;;;;;27.75;16.00;;;;;23.67;44.25;100323.72;5037291;28;45238;-74
2022/11/04 08:04:18;;;;;;;;;10.00;8.00;;;;;23.78;43.62;100347.03;5037372;28;45349;-74
2022/11/04 08:06:44;;;;;;;;;9.00;5.00;;;;;23.73;42.83;100347.63;5036755;28;46278;-73
2022/11/04 08:09:09;;;;;;;;;14.00;7.67;;;;;23.77;43.04;100357.84;5036910;28;45253;-74
2022/11/04 08:11:35;;;;;;;;;9.00;6.33;;;;;23.66;43.17;100357.44;5037592;28;45307;-74
2022/11/04 08:14:02;;;;;;;;;8.00;5.00;;;;;23.62;42.87;100351.72;5037333;28;45306;-74
2022/11/04 08:16:28;;;;;;;;;8.33;5.67;;;;;23.74;43.36;100373.16;5035813;28;47010;-75
2022/11/04 08:18:54;;;;;;;;;8.33;6.00;;;;;23.69;43.40;100372.13;5036746;28;45482;-74
2022/11/04 08:21:20;;;;;;;;;9.33;5.00;;;;;23.73;43.18;100382.16;5037728;28;45447;-74
2022/11/04 08:23:46;;;;;;;;;6.67;6.00;;;;;23.62;43.25;100369.47;5037033;28;45341;-74
2022/11/04 08:26:15;;;;;;;;;7.67;5.67;;;;;23.72;43.11;100391.16;5028773;28;46378;-74
2022/11/04 08:28:41;;;;;;;;;8.33;6.00;;;;;23.68;42.96;100376.63;5020322;28;45360;-74
2022/11/04 08:31:12;;;;;;;;;7.00;5.00;;;;;23.72;43.50;100390.31;5017310;28;45396;-73
2022/11/04 08:33:38;;;;;;;;;6.67;4.67;;;;;23.72;43.29;100399.13;5017707;28;45314;-74
2022/11/04 08:36:08;;;;;;;;;10.67;5.67;;;;;23.66;43.63;100402.56;5017070;28;47316;-73
2022/11/04 08:38:33;;;;;;;;;7.00;5.67;;;;;23.72;43.11;100412.41;5017305;28;45337;-73
2022/11/04 08:40:59;;;;;;;;;5.33;5.33;;;;;23.66;43.17;100410.53;5017292;28;45338;-74
2022/11/04 08:43:25;;;;;;;;;6.33;3.00;;;;;23.72;43.43;100420.38;5011200;28;45491;-74
2022/11/04 08:45:52;;;;;;;;;7.00;4.00;;;;;23.61;42.91;100411.16;5008856;28;46505;-74
2022/11/04 08:48:17;;;;;;;;;5.00;3.67;;;;;23.69;42.56;100431.38;5017117;28;45700;-74
2022/11/04 08:50:46;;;;;;;;;3.33;3.33;;;;;23.61;42.51;100432.41;5016992;28;45484;-74
2022/11/04 08:53:12;;;;;;;;;5.00;5.00;;;;;23.66;42.43;100449.56;5017695;28;45310;-71
2022/11/04 08:55:37;;;;;;;;;5.33;2.67;;;;;23.61;42.58;100448.31;5028424;28;48833;-72
2022/11/04 08:58:03;;;;;;;;;2.67;2.00;;;;;23.62;42.91;100454.47;5016615;28;45349;-72
2022/11/04 09:00:28;;;;;;;;;4.33;2.33;;;;;23.60;42.49;100445.88;5017945;28;45496;-72
2022/11/04 09:02:54;;;;;;;;;5.00;3.00;;;;;23.62;42.82;100460.59;5016839;28;45275;-72
2022/11/04 09:05:20;;;;;;;;;4.33;2.00;;;;;23.55;42.56;100459.75;5016643;28;45422;-72
2022/11/04 09:07:45;;;;;;;;;3.00;2.00;;;;;23.62;42.43;100476.53;5016275;28;45413;-72
2022/11/04 09:10:10;;;;;;;;;4.67;1.33;;;;;23.62;42.78;100489.81;5016742;28;45402;-72
2022/11/04 09:12:36;;;;;;;;;3.33;2.67;;;;;23.56;42.64;100479.16;5017048;28;45413;-73
2022/11/04 09:15:04;;;;;;;;;5.33;3.00;;;;;23.62;42.33;100504.91;5016316;28;46129;-73
2022/11/04 09:17:30;;;;;;;;;7.67;4.00;;;;;23.62;42.39;100503.09;5017662;28;45393;-72
2022/11/04 09:19:56;;;;;;;;;2.33;2.33;;;;;23.63;42.71;100506.53;5024497;28;45319;-72
2022/11/04 09:22:21;;;;;;;;;2.00;2.00;;;;;23.59;42.82;100510.63;5015337;28;45386;-72
2022/11/04 09:24:47;;;;;;;;;1.00;1.00;;;;;23.64;42.57;100518.81;4989453;28;45321;-72
2022/11/04 09:27:13;;;;;;;;;6.00;1.00;;;;;23.65;42.87;100528.44;5018394;28;45361;-72
2022/11/04 09:29:39;;;;;;;;;3.00;3.00;;;;;23.58;42.99;100520.41;5017114;28;45214;-72
2022/11/04 09:32:05;;;;;;;;;3.00;3.00;;;;;23.65;43.27;100544.38;5021906;28;45417;-72
2022/11/04 09:34:31;;;;;;;;;7.00;5.00;;;;;23.67;42.95;100546.81;5016602;28;45386;-72
2022/11/04 09:36:57;;;;;;;;;1.00;1.00;;;;;23.67;42.87;100549.47;5016356;28;45509;-72
2022/11/04 09:39:23;;;;;;;;;5.33;2.33;;;;;23.56;42.79;100543.72;5016813;28;45414;-72
2022/11/04 09:42:12;;;;;;;;;3.33;2.00;;;;;23.67;42.64;100571.53;5029744;28;45495;-72
2022/11/04 09:44:58;;;;;;;;;2.00;2.00;;;;;23.67;43.07;100563.56;4989409;28;46208;-72
2022/11/04 09:47:24;;;;;;;;;3.67;2.00;;;;;23.68;42.66;100580.34;4993949;28;45350;-72
2022/11/04 09:49:57;;;;;;;;;2.33;2.33;;;;;23.66;43.29;100591.13;4993803;28;45403;-72
2022/11/04 09:52:31;;;;;;;;;3.67;3.00;;;;;23.63;42.90;100589.69;4993654;28;45327;-72
2022/11/04 09:55:06;;;;;;;;;1.67;1.67;;;;;23.69;42.72;100606.69;4993553;28;46742;-72
2022/11/04 09:57:32;;;;;;;;;2.67;1.00;;;;;23.71;42.79;100595.84;4993731;28;45532;-72
2022/11/04 09:59:58;;;;;;;;;3.00;1.33;;;;;23.63;42.85;100596.84;4993943;28;45448;-72
2022/11/04 10:02:55;;;;;;;;;4.67;2.00;;;;;23.72;43.28;100608.13;4993922;28;45543;-72
2022/11/04 10:06:17;;;;;;;;;1.00;1.00;;;;;23.72;42.83;100619.56;4992740;28;47897;-72
2022/11/04 10:08:55;;;;;;;;;2.00;2.00;;;;;23.72;42.76;100624.88;4934331;28;45518;-72
2022/11/04 10:11:33;;;;;;;;;2.67;1.67;;;;;23.71;42.85;100630.38;4935576;28;45513;-72
2022/11/04 10:14:13;;;;;;;;;2.33;2.33;;;;;23.72;42.68;100647.97;4935110;28;45651;-72
2022/11/04 10:16:47;;;;;;;;;4.00;1.00;;;;;23.73;43.05;100660.25;4935698;28;45409;-72
2022/11/04 10:19:29;;;;;;;;;2.00;0.33;;;;;23.72;43.04;100663.91;4934979;28;45522;-72
2022/11/04 10:22:17;;;;;;;;;2.33;2.00;;;;;23.73;43.27;100663.69;4935183;28;45354;-73
2022/11/04 10:25:20;;;;;;;;;4.67;3.00;;;;;23.73;42.56;100671.66;4935351;28;45312;-72
2022/11/04 10:27:47;;;;;;;;;1.00;1.00;;;;;23.74;42.76;100683.94;4933854;28;45335;-72
2022/11/04 10:30:17;;;;;;;;;4.00;2.67;;;;;23.74;42.77;100693.75;4937036;28;45491;-72
2022/11/04 10:33:09;;;;;;;;;2.33;1.00;;;;;23.75;42.67;100698.06;4935069;28;45351;-72
2022/11/04 10:35:51;;;;;;;;;2.00;1.00;;;;;23.77;42.75;100698.66;4934573;28;45475;-73
2022/11/04 10:38:31;;;;;;;;;3.33;2.67;;;;;23.72;42.67;100715.19;4944690;28;47240;-73
2022/11/04 10:40:56;;;;;;;;;2.00;1.00;;;;;23.77;43.11;100708.47;5032140;28;45383;-72
2022/11/04 10:43:27;;;;;;;;;2.00;1.00;;;;;23.77;42.65;100724.41;5016182;28;45380;-72
2022/11/04 10:46:14;;;;;;;;;0.67;0.67;;;;;23.78;42.29;100731.38;5015914;28;45389;-73
2022/11/04 10:48:49;;;;;;;;;3.00;0.67;;;;;23.78;42.94;100752.63;5022563;28;46051;-72
2022/11/04 10:51:20;;;;;;;;;1.33;1.33;;;;;23.77;42.98;100753.63;5035134;28;45439;-73
2022/11/04 10:53:53;;;;;;;;;3.33;1.67;;;;;23.78;42.72;100756.09;5035331;28;45459;-73
2022/11/04 10:56:30;;;;;;;;;1.00;0.67;;;;;23.73;42.76;100761.19;5035076;28;45327;-72
2022/11/04 10:59:03;;;;;;;;;0.33;0.33;;;;;23.79;42.60;100768.38;5037173;28;46075;-72
2022/11/04 11:01:33;;;;;;;;;3.67;1.33;;;;;23.80;42.77;100777.16;5035234;28;45416;-72
2022/11/04 11:04:00;;;;;;;;;2.00;1.00;;;;;23.79;42.68;100786.97;5038799;28;45783;-73
2022/11/04 11:06:32;;;;;;;;;0.00;0.00;;;;;23.80;42.41;100787.78;5035216;28;45431;-72
2022/11/04 11:09:00;;;;;;;;;2.00;1.00;;;;;23.80;42.44;100791.28;5025533;28;46170;-72
2022/11/04 11:11:44;;;;;;;;;3.67;1.00;;;;;23.78;42.70;100795.97;5034900;28;45451;-73
2022/11/04 11:14:27;;;;;;;;;1.33;1.00;;;;;23.78;42.47;100811.91;5028677;28;45510;-72
2022/11/04 11:16:53;;;;;;;;;2.00;1.00;;;;;23.75;42.50;100809.63;5035111;28;45302;-73
2022/11/04 11:19:28;;;;;;;;;1.67;0.67;;;;;23.78;42.47;100819.88;5034781;28;47602;-72
2022/11/04 11:21:55;;;;;;;;;1.00;1.00;;;;;23.78;42.90;100837.63;5038635;28;45335;-72
2022/11/04 11:24:22;;;;;;;;;0.00;0.00;;;;;23.77;42.79;100847.44;5038525;28;45506;-73
2022/11/04 11:27:00;;;;;;;;;0.00;0.00;;;;;23.78;42.60;100851.75;5038797;28;45389;-74
2022/11/04 11:29:27;;;;;;;;;1.67;1.67;;;;;23.78;42.56;100864.19;5025229;28;46549;-72
2022/11/04 11:31:54;;;;;;;;;1.67;1.00;;;;;23.78;42.60;100870.34;5038447;28;45377;-74
2022/11/04 11:34:25;;;;;;;;;0.33;0.33;;;;;23.79;42.59;100881.75;5038815;28;45443;-74
2022/11/04 11:36:53;;;;;;;;;1.00;1.00;;;;;23.79;42.73;100879.94;5038636;28;45410;-73
2022/11/04 11:39:21;;;;;;;;;2.00;1.00;;;;;23.80;42.78;100894.06;5036532;28;48196;-73
2022/11/04 11:42:05;;;;;;;;;1.67;1.00;;;;;23.80;42.53;100897.53;5032165;28;45431;-73
2022/11/04 11:44:43;;;;;;;;;0.67;0.67;;;;;23.80;42.81;100908.16;5035709;28;45514;-74
2022/11/04 11:47:27;;;;;;;;;1.00;1.00;;;;;23.81;42.79;100914.31;5022403;28;45534;-73
2022/11/04 11:50:14;;;;;;;;;0.67;0.67;;;;;23.80;42.56;100928.59;5031624;28;46388;-73
2022/11/04 11:52:40;;;;;;;;;0.00;0.00;;;;;23.80;42.74;100933.91;5018283;28;45297;-73
2022/11/04 11:55:14;;;;;;;;;2.00;2.00;;;;;23.80;43.21;100940.03;5033466;28;45385;-73
2022/11/04 11:58:01;;;;;;;;;2.00;1.00;;;;;23.80;42.66;100949.84;5026662;28;45623;-73
2022/11/04 12:00:31;;;;;;;;;2.00;1.00;;;;;23.71;42.70;100939.34;5037644;28;46124;-73
2022/11/04 12:03:05;;;;;;;;;2.00;1.00;;;;;23.78;42.85;100954.53;5037484;28;45432;-73
2022/11/04 12:06:35;;;;;;;;;0.00;0.00;;;;;23.78;42.83;100963.31;5032578;28;45500;-73
2022/11/04 12:09:18;;;;;;;;;2.33;1.00;;;;;23.78;42.51;100970.47;4982444;28;45486;-73
2022/11/04 12:12:05;;;;;;;;;1.00;1.00;;;;;23.77;42.94;100966.97;4980380;28;46131;-73